• Join FlightAware (Why Join?)
  • Login
  • US Flag 
03:41AM EDT


 

Airport Tracker/Info


-or-


 

Live Flight TrackerFlight Track Log ✈ PDT4314 ✈ 28-Oct-2013 ✈ KBGM - KPHL

Flight Track Log - Related Links

Times and Time Zones

All times are in EDT time to prevent confusion due to time zone crossing. See the PDT4314 flight status page for this flight to view local times or setup timezone preferences in your user account.

Time Position Orientation Groundspeed Altitude Reporting Facility
EDT Latitude Longitude Course Direction KTS MPH feet Rate Location/Type
05:58PM 41.9971 -75.9105 180° South  Level Estimated
05:59PM 41.9442 -75.8933 154° Southeast  Level Estimated
06:00PM 41.8914 -75.8761 160° South  Level Estimated
06:01PM 41.8385 -75.8590 159° South  Level Estimated
06:02PM 41.7846 -75.8495 173° South  Level FlightAware Approximate
06:03PM 41.7307 -75.8401 173° South  Level FlightAware Approximate
06:04PM 41.6779 -75.8226 153° Southeast  Level Estimated
06:05PM 41.6251 -75.8051 161° South  Level Estimated
06:06PM 41.5724 -75.7871 166° South  Level FlightAware Approximate
06:07PM 41.5198 -75.7692 166° South  Level FlightAware Approximate
06:08PM 41.4671 -75.7513 166° South  Level FlightAware Approximate
06:09PM 41.4143 -75.7339 162° South  Level Estimated
06:10PM 41.3623 -75.7128 163° South  Level FlightAware Approximate
06:11PM 41.3102 -75.6917 163° South  Level FlightAware Approximate
06:12PM 41.2582 -75.6707 163° South  Level FlightAware Approximate
06:13PM 41.2062 -75.6497 163° South  Level FlightAware Approximate
06:14PM 41.1533 -75.6331 159° South  Level Estimated
06:15PM 41.1003 -75.6166 163° South  Level Estimated
06:16PM 41.0487 -75.5940 162° South  Level FlightAware Approximate
06:17PM 40.9970 -75.5715 162° South  Level FlightAware Approximate
06:18PM 40.9454 -75.5491 162° South  Level FlightAware Approximate
06:19PM 40.8923 -75.5336 190° South  Level Estimated
06:20PM 40.8380 -75.5289 176° South  Level FlightAware Approximate
06:20PM 40.6667 -75.6000 189° South 249 287 7,500  Level Philadelphia TRACON
06:21PM 40.7838 -75.5242 176° South  Level FlightAware Approximate
06:21PM 40.6000 -75.5833 169° South 259 298 6,900  Level Philadelphia TRACON
06:22PM 40.7295 -75.5196 176° South  Level FlightAware Approximate
06:22PM 40.5333 -75.5833 180° South 259 298 6,300  Level Philadelphia TRACON
06:23PM 40.6767 -75.5022 187° South  Level Estimated
06:23PM 40.4667 -75.5833 180° South 256 295 5,500  Level Philadelphia TRACON
06:24PM 40.6224 -75.5051 182° South  Level FlightAware Approximate
06:24PM 40.3833 -75.5833 180° South 258 297 5,000  Level Philadelphia TRACON
06:25PM 40.5699 -75.4864 190° South  Level Estimated
06:25PM 40.3333 -75.5500 153° Southeast 247 284 5,000  Level Philadelphia TRACON
06:26PM 40.5162 -75.4971 189° South  Level FlightAware Approximate
06:26PM 40.3000 -75.4833 123° Southeast 238 274 5,000  Level Philadelphia TRACON
06:27PM 40.2667 -75.4000 118° Southeast 235 270 5,000  Level Philadelphia TRACON
06:28PM 40.2500 -75.3167 105° East 235 270 5,000  Level Philadelphia TRACON
06:29PM 40.2000 -75.2667 143° Southeast 232 267 5,100 -120 Climbing Philadelphia TRACON
06:30PM 40.1333 -75.2500 169° South 235 270 4,800 -540 Descending Philadelphia TRACON
06:31PM 40.0833 -75.2167 153° Southeast 216 249 4,000 -420 Descending Philadelphia TRACON
06:32PM 40.0167 -75.2000 169° South 205 236 4,000  Level Philadelphia TRACON
06:33PM 39.9667 -75.1667 153° Southeast 207 238 4,000  Level Philadelphia TRACON
06:34PM 39.9000 -75.1500 169° South 208 239 4,000 -120 Level Philadelphia TRACON
06:35PM 39.8500 -75.1167 153° Southeast 208 239 3,800 -540 Descending Philadelphia TRACON
06:36PM 39.8000 -75.1000 166° South 212 244 3,000 -420 Descending Philadelphia TRACON
06:37PM 39.7500 -75.1000 180° South 202 232 3,000 -300 Level Philadelphia TRACON
06:38PM 39.7333 -75.1500 247° West 176 203 2,500 -660 Descending Philadelphia TRACON
06:39PM 39.7833 -75.1833 333° Northwest 175 201 1,700 -780 Descending Philadelphia TRACON
06:40PM 39.8333 -75.2000 346° North 160 184 1,000 -720 Descending Philadelphia TRACON
06:41PM 39.8667 -75.2167 339° North 105 121 300 -720 Descending Philadelphia TRACON